createdAt,value
2023-09-28T00:01:05.143Z,21.57
2023-09-28T00:06:08.191Z,23.03
2023-09-28T00:11:11.197Z,20.87
2023-09-28T00:16:14.241Z,22.40
2023-09-28T00:21:17.360Z,22.13
2023-09-28T00:26:20.976Z,23.70
2023-09-28T00:31:24.069Z,22.70
2023-09-28T00:36:27.403Z,20.70
2023-09-28T00:41:30.476Z,21.27
2023-09-28T00:46:34.697Z,21.07
2023-09-28T00:51:40.687Z,20.23
2023-09-28T00:56:43.581Z,22.03
2023-09-28T01:01:48.584Z,19.07
2023-09-28T01:06:52.495Z,23.93
2023-09-28T01:11:56.897Z,24.27
2023-09-28T01:16:59.976Z,26.80
2023-09-28T01:22:03.996Z,22.53
2023-09-28T01:27:08.125Z,25.50
2023-09-28T01:32:11.256Z,20.37
2023-09-28T01:37:14.578Z,23.97
2023-09-28T01:42:17.578Z,23.20
2023-09-28T01:47:20.460Z,23.53
2023-09-28T01:52:23.484Z,22.70
2023-09-28T01:57:26.641Z,22.30
2023-09-28T02:02:30.618Z,21.63
2023-09-28T02:07:35.620Z,20.00
2023-09-28T02:12:45.129Z,28.20
2023-09-28T02:17:48.342Z,21.27
2023-09-28T02:22:54.323Z,22.50
2023-09-28T02:27:58.007Z,19.03
2023-09-28T02:33:01.875Z,16.90
2023-09-28T02:38:04.849Z,17.63
2023-09-28T02:43:08.194Z,20.30
2023-09-28T02:48:12.228Z,19.83
2023-09-28T02:53:15.793Z,17.80
2023-09-28T02:58:18.689Z,23.27
2023-09-28T03:03:21.774Z,22.00
2023-09-28T03:08:25.419Z,21.40
2023-09-28T03:13:28.692Z,26.30
2023-09-28T03:18:31.900Z,18.97
2023-09-28T03:23:35.030Z,22.73
2023-09-28T03:28:38.571Z,21.87
2023-09-28T03:33:42.369Z,18.60
2023-09-28T03:38:45.360Z,18.17
2023-09-28T03:43:49.779Z,18.53
2023-09-28T03:48:52.697Z,18.87
2023-09-28T03:53:56.699Z,19.73
2023-09-28T03:58:59.710Z,16.43
2023-09-28T04:04:02.809Z,17.57
2023-09-28T04:09:08.821Z,20.70
2023-09-28T04:14:12.086Z,18.53
2023-09-28T04:19:15.299Z,19.73
2023-09-28T04:24:19.024Z,18.90
2023-09-28T04:29:22.233Z,20.70
2023-09-28T04:34:25.677Z,22.67
2023-09-28T04:39:28.780Z,21.10
2023-09-28T04:44:32.417Z,21.90
2023-09-28T04:49:35.720Z,28.80
2023-09-28T04:54:39.424Z,21.03
2023-09-28T04:59:43.166Z,19.97
2023-09-28T05:04:46.542Z,23.33
2023-09-28T05:09:49.705Z,18.70
2023-09-28T05:14:53.719Z,20.33
2023-09-28T05:19:56.841Z,17.90
2023-09-28T05:24:59.940Z,21.40
2023-09-28T05:30:04.953Z,19.30
2023-09-28T05:35:08.441Z,25.83
2023-09-28T05:40:11.891Z,27.27
2023-09-28T05:45:15.056Z,24.57
2023-09-28T05:50:19.991Z,20.70
2023-09-28T05:55:24.161Z,36.07
2023-09-28T06:00:27.653Z,27.23
2023-09-28T06:05:30.779Z,27.97
2023-09-28T06:10:34.955Z,31.40
2023-09-28T06:15:38.037Z,28.10
2023-09-28T06:20:42.851Z,27.50
2023-09-28T06:25:46.316Z,26.60
2023-09-28T06:30:49.207Z,27.90
2023-09-28T06:35:52.682Z,27.03
2023-09-28T06:40:56.912Z,27.73
2023-09-28T06:46:00.037Z,31.43
2023-09-28T06:51:03.206Z,27.13
2023-09-28T06:56:14.355Z,27.40
2023-09-28T07:01:17.940Z,28.20
2023-09-28T07:06:23.010Z,30.23
2023-09-28T07:11:27.613Z,27.25
2023-09-28T07:16:31.305Z,23.05
2023-09-28T07:21:34.407Z,23.73
2023-09-28T07:26:37.406Z,26.58
2023-09-28T07:31:40.491Z,23.10
2023-09-28T07:36:43.506Z,24.83
2023-09-28T07:41:46.659Z,22.45
2023-09-28T07:46:49.926Z,19.63
2023-09-28T07:51:56.423Z,20.02
2023-09-28T07:56:59.399Z,21.30
2023-09-28T08:02:03.865Z,20.90
2023-09-28T08:07:06.697Z,17.80
2023-09-28T08:12:30.866Z,17.63
2023-09-28T08:17:44.829Z,16.58
2023-09-28T08:22:49.355Z,18.33
2023-09-28T08:27:52.693Z,16.83
2023-09-28T08:32:56.322Z,17.38
2023-09-28T08:37:59.671Z,16.27
2023-09-28T08:43:06.463Z,13.43
2023-09-28T08:48:13.387Z,12.95
2023-09-28T08:53:18.984Z,15.15
2023-09-28T08:58:22.545Z,16.73
2023-09-28T09:03:27.166Z,14.13
2023-09-28T09:08:34.829Z,12.32
2023-09-28T09:13:54.938Z,10.23
2023-09-28T09:19:00.758Z,11.90
2023-09-28T09:24:05.985Z,10.68
2023-09-28T09:29:10.826Z,12.30
2023-09-28T09:34:16.230Z,14.35
2023-09-28T09:39:24.953Z,13.02
2023-09-28T09:44:32.002Z,10.77
2023-09-28T09:49:35.168Z,10.68
2023-09-28T09:54:39.943Z,9.77
2023-09-28T09:59:49.420Z,11.40
2023-09-28T10:04:56.627Z,13.18
2023-09-28T10:10:00.667Z,11.52
2023-09-28T10:15:04.408Z,12.02
2023-09-28T10:20:08.770Z,13.57
2023-09-28T10:25:17.732Z,10.88
2023-09-28T10:30:23.590Z,10.93
2023-09-28T10:35:32.888Z,10.43
2023-09-28T10:40:48.328Z,9.27
2023-09-28T10:45:54.175Z,13.15
2023-09-28T10:50:57.874Z,11.70
2023-09-28T10:56:00.978Z,9.40
2023-09-28T11:01:08.433Z,8.70
2023-09-28T11:06:12.018Z,11.85
2023-09-28T11:11:17.907Z,11.27
2023-09-28T11:16:21.300Z,9.07
2023-09-28T11:21:25.272Z,8.55
2023-09-28T11:26:30.470Z,7.85
2023-09-28T11:31:37.471Z,10.57
2023-09-28T11:36:43.318Z,11.88
2023-09-28T11:42:00.909Z,9.35
2023-09-28T11:47:07.488Z,8.52
2023-09-28T11:52:12.114Z,14.57
2023-09-28T11:57:18.460Z,9.18
2023-09-28T12:02:22.782Z,6.50
2023-09-28T12:07:26.440Z,8.65
2023-09-28T12:12:29.744Z,8.95
2023-09-28T12:17:33.088Z,7.47
2023-09-28T12:22:37.379Z,12.57
2023-09-28T12:27:41.855Z,7.65
2023-09-28T12:32:47.503Z,9.02
2023-09-28T12:37:51.398Z,9.15
2023-09-28T12:42:54.777Z,10.52
2023-09-28T12:47:58.836Z,7.75
2023-09-28T12:53:03.326Z,9.43
2023-09-28T12:58:06.760Z,7.85
2023-09-28T13:03:11.149Z,7.57
2023-09-28T13:08:15.300Z,7.43
2023-09-28T13:13:18.432Z,11.57
2023-09-28T13:18:22.848Z,7.60
2023-09-28T13:23:26.977Z,6.68
2023-09-28T13:28:30.133Z,8.38
2023-09-28T13:33:39.415Z,8.13
2023-09-28T13:38:44.007Z,8.07
2023-09-28T13:43:47.483Z,10.18
2023-09-28T13:48:51.091Z,6.00
2023-09-28T13:53:54.773Z,8.88
2023-09-28T13:58:58.188Z,6.18
2023-09-28T14:04:01.679Z,5.47
2023-09-28T14:09:05.578Z,7.13
2023-09-28T14:14:10.413Z,5.53
2023-09-28T14:19:14.784Z,7.10
2023-09-28T14:24:18.188Z,5.13
2023-09-28T14:29:21.429Z,9.68
2023-09-28T14:34:24.513Z,7.57
2023-09-28T14:39:28.816Z,8.55
2023-09-28T14:44:32.586Z,5.30
2023-09-28T14:49:35.713Z,7.00
2023-09-28T14:54:38.756Z,6.18
2023-09-28T14:59:41.854Z,7.53
2023-09-28T15:04:45.096Z,5.45
2023-09-28T15:09:49.864Z,8.35
2023-09-28T15:14:53.076Z,4.13
2023-09-28T15:19:56.185Z,5.13
2023-09-28T15:24:59.721Z,6.55
2023-09-28T15:30:06.534Z,10.10
2023-09-28T15:35:11.269Z,9.05
2023-09-28T15:40:14.826Z,7.82
2023-09-28T15:45:18.616Z,6.05
2023-09-28T15:50:22.747Z,9.05
2023-09-28T15:55:26.500Z,5.22
2023-09-28T16:00:37.878Z,4.13
2023-09-28T16:05:42.091Z,6.10
2023-09-28T16:10:47.371Z,6.18
2023-09-28T16:15:50.683Z,11.40
2023-09-28T16:20:53.884Z,8.73
2023-09-28T16:25:57.227Z,8.52
2023-09-28T16:31:00.672Z,4.82
2023-09-28T16:36:04.047Z,7.18
2023-09-28T16:41:07.346Z,6.53
2023-09-28T16:46:10.850Z,10.60
2023-09-28T16:51:14.449Z,14.40
2023-09-28T16:56:18.316Z,12.95
2023-09-28T17:01:21.644Z,14.52
2023-09-28T17:06:24.967Z,31.35
2023-09-28T17:11:29.201Z,20.45
2023-09-28T17:16:32.901Z,57.42
2023-09-28T17:21:37.232Z,118.43
2023-09-28T17:26:40.862Z,55.25
2023-09-28T17:31:44.192Z,31.05
2023-09-28T17:36:50.359Z,42.35
2023-09-28T17:41:53.641Z,33.05
2023-09-28T17:46:57.126Z,33.20
2023-09-28T17:52:00.898Z,27.65
2023-09-28T17:57:04.431Z,30.88
2023-09-28T18:02:10.054Z,28.50
2023-09-28T18:07:13.993Z,36.53
2023-09-28T18:12:17.831Z,24.80
2023-09-28T18:17:21.559Z,15.60
2023-09-28T18:22:25.592Z,20.55
2023-09-28T18:27:30.315Z,43.75
2023-09-28T18:32:34.738Z,21.65
2023-09-28T18:37:39.991Z,15.98
2023-09-28T18:49:05.971Z,10.95
2023-09-28T18:54:10.117Z,14.52
2023-09-28T18:59:15.310Z,17.25
2023-09-28T19:04:19.112Z,22.17
2023-09-28T19:09:23.271Z,14.50
2023-09-28T19:14:27.385Z,14.68
2023-09-28T19:19:31.515Z,16.67
2023-09-28T19:24:39.277Z,19.23
2023-09-28T19:29:44.014Z,17.90
2023-09-28T19:34:47.807Z,20.93
2023-09-28T19:39:51.829Z,18.23
2023-09-28T19:44:55.446Z,20.90
2023-09-28T19:49:59.012Z,18.97
2023-09-28T19:55:05.017Z,23.97
2023-09-28T20:00:11.735Z,20.43
2023-09-28T20:05:17.207Z,19.40
2023-09-28T20:10:20.610Z,17.90
2023-09-28T20:15:24.013Z,29.90
2023-09-28T20:20:27.735Z,19.47
2023-09-28T20:25:30.755Z,21.63
2023-09-28T20:30:34.149Z,18.77
2023-09-28T20:35:37.827Z,13.83
2023-09-28T20:40:41.369Z,19.83
2023-09-28T20:45:45.131Z,24.43
2023-09-28T20:50:48.639Z,19.00
2023-09-28T20:55:51.987Z,21.57
2023-09-28T21:00:55.767Z,20.73
2023-09-28T21:05:59.266Z,34.03
2023-09-28T21:11:02.938Z,18.47
2023-09-28T21:16:07.239Z,22.10
2023-09-28T21:21:10.779Z,16.73
2023-09-28T21:26:14.023Z,16.27
2023-09-28T21:31:17.651Z,15.70
2023-09-28T21:36:21.021Z,19.80
2023-09-28T21:41:24.057Z,18.97
2023-09-28T21:46:28.248Z,20.60
2023-09-28T21:51:31.198Z,21.40
2023-09-28T21:56:34.520Z,19.20
2023-09-28T22:01:39.888Z,16.30
2023-09-28T22:06:43.530Z,16.70
2023-09-28T22:11:46.590Z,15.80
2023-09-28T22:16:49.976Z,16.77
2023-09-28T22:21:53.010Z,18.20
2023-09-28T22:26:56.429Z,16.00
2023-09-28T22:32:00.266Z,17.83
2023-09-28T22:37:06.701Z,22.87
2023-09-28T22:42:09.979Z,23.87
2023-09-28T22:47:14.361Z,15.67
2023-09-28T22:52:18.350Z,15.30
2023-09-28T22:57:22.506Z,16.93
2023-09-28T23:02:26.094Z,13.40
2023-09-28T23:07:29.762Z,17.27
2023-09-28T23:12:33.373Z,16.67
2023-09-28T23:17:37.237Z,15.07
2023-09-28T23:22:45.526Z,14.87
2023-09-28T23:27:49.834Z,17.20
2023-09-28T23:32:53.023Z,13.97
2023-09-28T23:37:57.059Z,16.90
2023-09-28T23:43:00.070Z,16.90
2023-09-28T23:48:06.712Z,13.17
2023-09-28T23:53:10.858Z,11.07
2023-09-28T23:58:14.337Z,15.70
